Time;durP1;ratioP1;P1;durP2;ratioP2;P2;SDS_P1;SDS_P2;PMS_P1;PMS_P2;Temp;Humidity;BMP_temperature;BMP_pressure;BME280_temperature;BME280_humidity;BME280_pressure;Samples;Min_cycle;Max_cycle;Signal;HPM_P1;HPM_P2
2023/05/09 00:00:31;;;;;;;;;3.00;3.00;;;;;19.26;59.69;101229.00;2072008;28;46537;-64
2023/05/09 00:01:32;;;;;;;;;3.00;3.00;;;;;19.27;59.45;101227.19;2063345;28;46359;-63
2023/05/09 00:02:33;;;;;;;;;3.00;3.00;;;;;19.27;59.77;101230.75;2071787;28;46014;-64
2023/05/09 00:03:33;;;;;;;;;2.00;2.00;;;;;19.27;59.41;101225.38;2072598;28;45868;-62
2023/05/09 00:04:34;;;;;;;;;4.67;3.33;;;;;19.26;59.72;101230.84;2072223;28;46158;-63
2023/05/09 00:05:34;;;;;;;;;2.67;2.67;;;;;19.25;59.89;101223.72;2072318;28;47010;-62
2023/05/09 00:06:34;;;;;;;;;3.00;3.00;;;;;19.23;59.45;101223.78;2062831;28;46215;-62
2023/05/09 00:07:35;;;;;;;;;2.67;2.67;;;;;19.23;59.35;101220.22;2062939;28;46847;-63
2023/05/09 00:08:36;;;;;;;;;3.00;3.00;;;;;19.22;59.76;101219.38;2072568;28;46970;-63
2023/05/09 00:09:37;;;;;;;;;3.00;3.00;;;;;19.23;59.49;101217.53;2072247;28;45869;-63
2023/05/09 00:10:37;;;;;;;;;4.67;4.00;;;;;19.22;59.46;101221.19;2079536;28;46262;-64
2023/05/09 00:11:38;;;;;;;;;3.00;3.00;;;;;19.22;59.72;101219.38;2080084;28;46251;-64
2023/05/09 00:12:38;;;;;;;;;3.00;2.33;;;;;19.23;60.04;101222.94;2072378;28;46315;-63
2023/05/09 00:13:38;;;;;;;;;2.67;2.67;;;;;19.22;59.65;101221.19;2072200;28;46428;-62
2023/05/09 00:14:39;;;;;;;;;4.67;4.67;;;;;19.21;59.83;101203.31;2071886;28;46266;-65
2023/05/09 00:15:39;;;;;;;;;4.25;4.25;;;;;19.21;59.44;101214.94;2071700;28;46101;-64
2023/05/09 00:16:40;;;;;;;;;3.33;3.33;;;;;19.20;59.54;101207.81;2071966;28;46133;-65
2023/05/09 00:17:40;;;;;;;;;2.00;2.00;;;;;19.20;59.46;101210.50;2072462;28;46677;-63
2023/05/09 00:18:42;;;;;;;;;5.67;3.00;;;;;19.21;59.86;101208.69;2072554;28;46233;-63
2023/05/09 00:19:43;;;;;;;;;2.25;2.25;;;;;19.21;59.77;101206.84;2071632;28;46325;-63
2023/05/09 00:20:43;;;;;;;;;3.00;3.00;;;;;19.21;59.62;101198.78;2072090;28;46310;-62
2023/05/09 00:21:43;;;;;;;;;2.00;2.00;;;;;19.21;59.52;101196.09;2072102;28;46009;-63
2023/05/09 00:22:44;;;;;;;;;3.00;3.00;;;;;19.23;59.88;101199.56;2072202;28;46293;-63
2023/05/09 00:23:45;;;;;;;;;4.00;4.00;;;;;19.23;59.52;101190.63;2080226;28;45450;-62
2023/05/09 00:24:49;;;;;;;;;2.75;2.75;;;;;19.24;59.55;101195.94;2079985;28;45753;-63
2023/05/09 00:25:50;;;;;;;;;3.00;3.00;;;;;19.26;59.74;101194.03;2072592;28;46538;-62
2023/05/09 00:26:50;;;;;;;;;3.33;3.33;;;;;19.25;60.08;101192.28;2072043;28;47720;-64
2023/05/09 00:27:50;;;;;;;;;4.00;4.00;;;;;19.26;59.89;101190.47;2072602;28;46159;-63
2023/05/09 00:28:51;;;;;;;;;3.33;3.33;;;;;19.26;59.89;101190.47;2071684;28;46733;-64
2023/05/09 00:29:51;;;;;;;;;2.00;2.00;;;;;19.24;59.75;101184.31;2072032;28;45754;-63
2023/05/09 00:30:52;;;;;;;;;3.00;3.00;;;;;19.25;59.89;101188.72;2071804;28;46482;-63
2023/05/09 00:31:52;;;;;;;;;3.00;3.00;;;;;19.23;59.98;101183.44;2072326;28;46449;-64
2023/05/09 00:32:52;;;;;;;;;2.00;2.00;;;;;19.23;59.74;101172.66;2071778;28;46338;-63
2023/05/09 00:33:53;;;;;;;;;4.33;3.33;;;;;19.23;59.65;101174.50;2072516;28;46798;-63
2023/05/09 00:34:53;;;;;;;;;5.00;5.00;;;;;19.23;59.87;101175.34;2071190;28;46672;-64
2023/05/09 00:35:54;;;;;;;;;4.33;3.33;;;;;19.23;59.65;101175.34;2071720;28;46549;-63
2023/05/09 00:36:54;;;;;;;;;5.00;3.67;;;;;19.25;59.94;101172.59;2071881;28;46199;-63
2023/05/09 00:37:58;;;;;;;;;3.33;3.33;;;;;19.25;59.74;101181.53;2072417;28;46416;-63
2023/05/09 00:38:58;;;;;;;;;3.25;3.25;;;;;19.25;59.70;101176.16;2071965;28;47127;-63
2023/05/09 00:39:59;;;;;;;;;3.00;3.00;;;;;19.27;59.95;101181.44;2072219;28;46640;-63
2023/05/09 00:40:59;;;;;;;;;5.00;2.00;;;;;19.28;59.78;101175.97;2072305;28;46381;-64
2023/05/09 00:41:59;;;;;;;;;3.33;3.33;;;;;19.29;59.74;101171.47;2071268;28;46603;-63
2023/05/09 00:43:00;;;;;;;;;4.33;4.33;;;;;19.29;59.90;101176.84;2071528;28;46218;-62
2023/05/09 00:44:00;;;;;;;;;3.00;3.00;;;;;19.29;59.71;101183.09;2071945;28;46289;-63
2023/05/09 00:45:01;;;;;;;;;4.00;4.00;;;;;19.30;59.73;101176.78;2072065;28;46620;-62
2023/05/09 00:46:01;;;;;;;;;2.00;2.00;;;;;19.31;59.75;101170.47;2071997;28;46934;-61
2023/05/09 00:47:02;;;;;;;;;4.67;4.67;;;;;19.31;59.71;101170.47;2072175;28;46330;-63
2023/05/09 00:48:02;;;;;;;;;4.00;4.00;;;;;19.32;59.85;101168.66;2071240;28;46451;-61
2023/05/09 00:49:03;;;;;;;;;2.00;2.00;;;;;19.30;59.59;101170.53;2072166;28;46301;-62
2023/05/09 00:50:04;;;;;;;;;2.00;2.00;;;;;19.29;59.62;101172.34;2072280;28;46546;-63
2023/05/09 00:51:05;;;;;;;;;3.00;3.00;;;;;19.27;59.76;101168.88;2071525;28;45184;-63
2023/05/09 00:52:05;;;;;;;;;4.00;4.00;;;;;19.26;59.82;101171.63;2071152;28;45613;-63
2023/05/09 00:53:06;;;;;;;;;3.33;3.33;;;;;19.25;59.47;101170.75;2070968;28;46594;-62
2023/05/09 00:54:07;;;;;;;;;3.25;2.00;;;;;19.24;59.45;101170.84;2072380;28;46562;-62
2023/05/09 00:55:08;;;;;;;;;2.75;2.25;;;;;19.22;59.57;101175.44;2071411;28;46221;-63
2023/05/09 00:56:09;;;;;;;;;3.33;3.33;;;;;19.22;59.54;101167.38;2071155;28;46268;-62
2023/05/09 00:57:10;;;;;;;;;4.00;4.00;;;;;19.21;59.82;101171.88;2071809;28;46469;-63
2023/05/09 00:58:10;;;;;;;;;4.33;2.00;;;;;19.19;59.50;101163.03;2070902;28;46407;-64
2023/05/09 00:59:10;;;;;;;;;4.00;3.00;;;;;19.18;59.52;101165.75;2071931;28;46388;-64
2023/05/09 01:00:11;;;;;;;;;3.00;3.00;;;;;19.17;59.32;101153.25;2071897;28;45971;-63
2023/05/09 01:01:12;;;;;;;;;6.25;5.50;;;;;19.15;59.61;101153.34;2062123;28;46391;-65
2023/05/09 01:02:14;;;;;;;;;2.00;2.00;;;;;19.14;59.45;101154.28;2062474;28;45991;-62
2023/05/09 01:03:14;;;;;;;;;2.00;2.00;;;;;19.11;59.20;101144.56;2072247;28;45239;-63
2023/05/09 01:04:15;;;;;;;;;3.00;3.00;;;;;19.10;59.14;101141.94;2071274;28;47119;-63
2023/05/09 01:05:17;;;;;;;;;3.75;3.75;;;;;19.08;59.63;101149.22;2071296;28;46374;-61
2023/05/09 01:06:41;;;;;;;;;3.50;3.50;;;;;19.07;59.34;101147.50;2071875;28;46302;-63
2023/05/09 01:08:06;;;;;;;;;1.25;1.25;;;;;19.05;59.60;101152.91;2079283;28;46588;-63
2023/05/09 01:09:31;;;;;;;;;3.00;3.00;;;;;19.05;59.71;101149.34;2076530;28;46580;-65
2023/05/09 01:11:10;;;;;;;;;3.75;3.75;;;;;19.05;59.66;101146.66;2071466;28;46928;-63
2023/05/09 01:12:47;;;;;;;;;4.25;3.50;;;;;19.03;59.99;101138.69;2046308;28;46971;-63
2023/05/09 01:14:00;;;;;;;;;4.75;3.00;;;;;19.04;59.84;101140.41;2046765;28;45210;-63
2023/05/09 01:15:06;;;;;;;;;2.50;2.50;;;;;19.04;59.91;101140.41;2047017;28;46970;-64
2023/05/09 01:16:17;;;;;;;;;4.50;4.50;;;;;19.04;60.31;101136.84;2046325;28;46386;-63
2023/05/09 01:17:39;;;;;;;;;2.75;2.75;;;;;19.04;60.16;101129.66;2046683;28;47477;-64
2023/05/09 01:18:59;;;;;;;;;3.00;3.00;;;;;19.04;59.93;101135.03;2046495;28;45960;-64
2023/05/09 01:20:13;;;;;;;;;3.00;3.00;;;;;19.04;60.07;101132.34;2046914;28;45767;-62
2023/05/09 01:21:22;;;;;;;;;8.00;7.00;;;;;19.05;59.94;101130.53;2030508;29;46956;-63
2023/05/09 01:22:33;;;;;;;;;8.00;8.00;;;;;19.05;59.89;101134.09;2029798;28;46423;-63
2023/05/09 01:23:45;;;;;;;;;7.80;7.80;;;;;19.05;60.25;101130.53;2039896;28;47356;-64
2023/05/09 01:25:00;;;;;;;;;7.00;5.25;;;;;19.05;60.43;101131.41;2046702;28;46395;-63
2023/05/09 01:26:24;;;;;;;;;2.50;2.00;;;;;19.05;59.97;101139.47;2046398;28;46865;-62
2023/05/09 01:27:52;;;;;;;;;3.00;2.50;;;;;19.06;59.88;101126.91;2046881;28;45834;-63
2023/05/09 01:29:11;;;;;;;;;3.25;3.25;;;;;19.05;60.21;101128.72;2046405;28;46802;-64
2023/05/09 01:30:12;;;;;;;;;3.25;3.25;;;;;19.04;60.29;101123.41;2046371;28;46905;-65
2023/05/09 01:31:14;;;;;;;;;4.50;4.50;;;;;19.05;60.48;101122.47;2046535;28;45559;-63
2023/05/09 01:32:19;;;;;;;;;3.50;3.50;;;;;19.03;59.87;101117.16;2046537;28;46357;-63
2023/05/09 01:33:21;;;;;;;;;2.00;2.00;;;;;19.02;60.16;101112.72;2045952;28;45446;-62
2023/05/09 01:34:27;;;;;;;;;3.25;3.00;;;;;19.01;60.50;101110.13;2046791;28;47166;-62
2023/05/09 01:35:31;;;;;;;;;3.00;3.00;;;;;19.00;60.04;101114.63;2046378;28;46041;-63
2023/05/09 01:36:35;;;;;;;;;3.00;2.75;;;;;18.99;60.13;101109.34;2046310;28;46771;-64
2023/05/09 01:37:40;;;;;;;;;3.00;3.00;;;;;18.99;59.92;101106.66;2046481;28;47008;-63
2023/05/09 01:38:44;;;;;;;;;3.00;3.00;;;;;18.97;60.15;101109.41;2046626;28;46564;-64
2023/05/09 01:39:48;;;;;;;;;4.00;4.00;;;;;18.97;60.47;101104.03;2046335;28;46222;-63
2023/05/09 01:40:53;;;;;;;;;3.50;3.50;;;;;18.98;60.10;101108.47;2046802;28;47890;-63
2023/05/09 01:41:56;;;;;;;;;2.25;2.25;;;;;18.99;60.40;101110.19;2046390;28;46428;-64
2023/05/09 01:43:01;;;;;;;;;2.50;2.50;;;;;19.00;60.34;101094.94;2046259;28;46335;-63
2023/05/09 01:44:05;;;;;;;;;2.75;2.75;;;;;19.00;60.44;101097.63;2052086;28;46767;-63
2023/05/09 01:45:08;;;;;;;;;2.00;1.75;;;;;19.01;60.21;101102.06;2047941;28;46908;-63
2023/05/09 01:46:09;;;;;;;;;3.00;2.75;;;;;19.01;60.08;101104.75;2046284;28;47257;-64
2023/05/09 01:47:10;;;;;;;;;1.75;1.75;;;;;19.00;60.03;101101.19;2046657;28;46514;-63
2023/05/09 01:48:13;;;;;;;;;2.00;2.00;;;;;19.00;60.28;101101.19;2050297;28;46669;-64
2023/05/09 01:49:17;;;;;;;;;2.75;2.00;;;;;19.00;60.58;101103.88;2071846;28;46314;-65
2023/05/09 01:50:19;;;;;;;;;3.75;3.75;;;;;18.99;60.38;101107.50;2071430;28;46966;-64
2023/05/09 01:51:20;;;;;;;;;2.00;2.00;;;;;18.99;60.27;101101.25;2070301;28;46336;-63
2023/05/09 01:52:23;;;;;;;;;1.67;1.67;;;;;18.98;60.10;101097.72;2061904;28;46088;-63
2023/05/09 01:53:26;;;;;;;;;1.75;1.75;;;;;18.97;60.31;101095.97;2063138;28;46049;-63
2023/05/09 01:54:28;;;;;;;;;2.00;2.00;;;;;18.98;60.35;101091.47;2067180;28;46959;-63
2023/05/09 01:55:31;;;;;;;;;3.25;3.00;;;;;18.99;60.07;101094.06;2071361;28;47291;-62
2023/05/09 01:56:35;;;;;;;;;1.75;1.75;;;;;18.98;60.34;101095.00;2071604;28;47096;-63
2023/05/09 01:57:37;;;;;;;;;2.00;2.00;;;;;18.99;60.17;101095.88;2070942;28;48475;-63
2023/05/09 01:58:38;;;;;;;;;2.25;2.25;;;;;18.99;60.57;101098.56;2071035;28;46855;-63
2023/05/09 01:59:44;;;;;;;;;3.25;2.50;;;;;18.99;59.98;101099.44;2071949;28;46563;-62
2023/05/09 02:00:46;;;;;;;;;2.25;2.00;;;;;19.00;60.43;101094.94;2072186;28;46999;-62
2023/05/09 02:01:48;;;;;;;;;3.75;3.75;;;;;19.01;60.47;101093.97;2072456;28;46125;-65
2023/05/09 02:02:49;;;;;;;;;4.75;4.00;;;;;19.01;60.51;101092.16;2080526;28;46434;-63
2023/05/09 02:03:53;;;;;;;;;3.75;3.75;;;;;19.01;60.57;101094.84;2080644;28;46479;-63
2023/05/09 02:04:56;;;;;;;;;2.75;2.75;;;;;19.01;60.54;101094.84;2072528;28;46841;-63
2023/05/09 02:05:56;;;;;;;;;2.50;2.50;;;;;19.02;60.46;101090.34;2072137;28;46545;-60
2023/05/09 02:06:59;;;;;;;;;2.00;2.00;;;;;19.02;60.62;101093.91;2072872;28;46903;-63
2023/05/09 02:07:59;;;;;;;;;3.25;3.00;;;;;19.02;60.47;101090.34;2072984;28;45339;-64
2023/05/09 02:09:01;;;;;;;;;1.67;1.67;;;;;19.01;60.31;101083.22;2073033;28;45525;-64
2023/05/09 02:10:02;;;;;;;;;3.50;2.75;;;;;19.00;60.29;101093.13;2080617;28;46596;-62
2023/05/09 02:11:03;;;;;;;;;2.25;2.25;;;;;19.00;60.52;101084.19;2080424;28;46613;-63
2023/05/09 02:12:03;;;;;;;;;2.00;2.00;;;;;19.00;60.58;101089.56;2073175;28;47567;-63
2023/05/09 02:13:04;;;;;;;;;4.00;4.00;;;;;18.99;60.45;101086.00;2072538;28;47091;-63
2023/05/09 02:14:05;;;;;;;;;2.00;2.00;;;;;18.99;60.77;101086.00;2068376;28;45573;-63
2023/05/09 02:15:06;;;;;;;;;4.00;4.00;;;;;19.00;60.59;101081.50;2064605;28;45938;-62
2023/05/09 02:16:08;;;;;;;;;4.25;2.50;;;;;19.00;60.81;101085.03;2072385;28;47013;-63
2023/05/09 02:17:08;;;;;;;;;2.50;2.50;;;;;19.00;60.72;101081.50;2072801;28;46887;-63
2023/05/09 02:18:08;;;;;;;;;4.00;4.00;;;;;19.00;60.65;101082.34;2072818;28;46700;-62
2023/05/09 02:19:09;;;;;;;;;4.33;4.33;;;;;18.99;60.90;101079.75;2072745;28;46636;-63
2023/05/09 02:20:10;;;;;;;;;3.00;3.00;;;;;19.00;60.97;101085.03;2072189;28;46543;-62
2023/05/09 02:21:11;;;;;;;;;3.50;3.50;;;;;19.00;60.63;101078.78;2072117;28;46450;-63
2023/05/09 02:22:12;;;;;;;;;3.67;3.67;;;;;19.00;60.88;101076.09;2072297;28;46794;-63
2023/05/09 02:23:13;;;;;;;;;2.00;2.00;;;;;19.00;60.72;101082.34;2072193;28;46813;-62
2023/05/09 02:24:13;;;;;;;;;2.33;2.00;;;;;18.99;60.66;101083.31;2072465;28;45635;-62
2023/05/09 02:25:14;;;;;;;;;3.67;3.67;;;;;19.00;60.90;101074.28;2072977;28;46812;-62
2023/05/09 02:26:15;;;;;;;;;2.33;2.33;;;;;18.98;60.90;101070.81;2073119;28;46155;-64
2023/05/09 02:27:16;;;;;;;;;3.00;3.00;;;;;18.99;60.76;101075.25;2073199;28;45475;-62
2023/05/09 02:28:18;;;;;;;;;3.00;2.50;;;;;19.00;60.82;101071.59;2072418;28;46711;-63
2023/05/09 02:29:22;;;;;;;;;4.00;4.00;;;;;18.99;60.87;101071.69;2073022;28;46478;-63
2023/05/09 02:30:24;;;;;;;;;4.25;4.25;;;;;18.99;60.69;101080.63;2072717;28;46529;-63
2023/05/09 02:31:27;;;;;;;;;3.25;3.00;;;;;18.97;60.75;101077.13;2080326;28;46759;-64
2023/05/09 02:32:30;;;;;;;;;3.75;3.75;;;;;18.97;60.71;101073.59;2080319;28;46559;-62
2023/05/09 02:33:33;;;;;;;;;3.00;3.00;;;;;18.95;60.84;101081.72;2073194;28;46989;-63
2023/05/09 02:34:35;;;;;;;;;2.75;2.75;;;;;18.94;60.80;101093.44;2072979;28;46557;-62
2023/05/09 02:35:37;;;;;;;;;2.75;2.75;;;;;18.93;61.28;101080.03;2072632;28;47208;-63
2023/05/09 02:36:38;;;;;;;;;4.25;4.25;;;;;18.92;61.17;101078.31;2073152;28;47028;-63
2023/05/09 02:37:38;;;;;;;;;2.67;2.67;;;;;18.92;61.06;101078.31;2072981;28;46374;-64
2023/05/09 02:38:40;;;;;;;;;4.67;3.00;;;;;18.90;61.06;101075.69;2072562;28;46541;-62
2023/05/09 02:39:41;;;;;;;;;3.50;3.50;;;;;18.90;61.29;101070.31;2080514;28;46695;-63
2023/05/09 02:40:43;;;;;;;;;3.67;3.67;;;;;18.91;61.36;101079.25;2080404;28;46027;-64
2023/05/09 02:41:48;;;;;;;;;5.00;3.50;;;;;18.90;61.32;101064.94;2072336;28;46702;-64
2023/05/09 02:42:48;;;;;;;;;3.50;3.25;;;;;18.91;61.32;101073.88;2072679;28;45794;-63
2023/05/09 02:43:49;;;;;;;;;3.00;3.00;;;;;18.89;61.28;101065.88;2072450;28;46584;-63
2023/05/09 02:44:53;;;;;;;;;3.67;3.00;;;;;18.89;61.33;101070.41;2072609;28;46359;-63
2023/05/09 02:45:53;;;;;;;;;3.25;2.00;;;;;18.89;61.18;101062.31;2072890;28;47077;-62
2023/05/09 02:46:54;;;;;;;;;3.00;3.00;;;;;18.88;61.56;101063.28;2072770;28;45878;-62
2023/05/09 02:47:54;;;;;;;;;2.00;2.00;;;;;18.88;61.06;101066.84;2073047;28;46537;-63
2023/05/09 02:48:55;;;;;;;;;2.00;2.00;;;;;18.88;61.21;101063.28;2072507;28;46425;-62
2023/05/09 02:49:55;;;;;;;;;3.33;3.00;;;;;18.88;61.49;101066.84;2072926;28;46350;-62
2023/05/09 02:50:56;;;;;;;;;3.67;3.67;;;;;18.88;61.66;101065.97;2072308;28;46933;-63
2023/05/09 02:51:56;;;;;;;;;3.00;3.00;;;;;18.87;61.75;101066.91;2072760;28;46560;-63
2023/05/09 02:52:57;;;;;;;;;1.00;1.00;;;;;18.86;61.52;101065.19;2071814;28;46512;-62
2023/05/09 02:53:57;;;;;;;;;3.67;3.67;;;;;18.86;61.52;101059.81;2072070;28;45574;-64
2023/05/09 02:54:57;;;;;;;;;6.00;4.33;;;;;18.86;61.64;101067.88;2066812;28;46130;-63
2023/05/09 02:55:58;;;;;;;;;3.00;3.00;;;;;18.83;61.65;101063.53;2072677;28;45612;-63
2023/05/09 02:56:58;;;;;;;;;3.33;3.33;;;;;18.83;61.98;101054.59;2072733;28;46876;-63
2023/05/09 02:57:58;;;;;;;;;4.67;4.67;;;;;18.82;61.85;101061.78;2072844;28;46684;-62
2023/05/09 02:58:59;;;;;;;;;3.00;3.00;;;;;18.80;62.03;101056.50;2072368;28;46319;-62
2023/05/09 02:59:59;;;;;;;;;2.00;2.00;;;;;18.79;62.34;101064.59;2072701;28;46541;-61
2023/05/09 03:01:00;;;;;;;;;3.67;3.67;;;;;18.79;62.06;101062.78;2071995;28;46477;-62
2023/05/09 03:02:00;;;;;;;;;3.33;3.33;;;;;18.78;62.43;101055.66;2071982;28;46330;-63
2023/05/09 03:03:01;;;;;;;;;6.33;5.33;;;;;18.76;62.29;101062.06;2072096;28;46361;-63
2023/05/09 03:04:01;;;;;;;;;3.00;3.00;;;;;18.75;62.14;101057.66;2072718;28;46182;-63
2023/05/09 03:05:02;;;;;;;;;5.00;4.00;;;;;18.74;62.62;101063.97;2072589;28;46441;-62
2023/05/09 03:06:02;;;;;;;;;4.67;3.00;;;;;18.73;62.47;101055.03;2072407;28;46527;-64
2023/05/09 03:07:03;;;;;;;;;3.67;3.67;;;;;18.71;62.47;101062.31;2071216;28;46693;-63
2023/05/09 03:08:04;;;;;;;;;4.67;3.67;;;;;18.71;62.98;101059.63;2071329;28;46200;-63
2023/05/09 03:09:04;;;;;;;;;3.00;2.67;;;;;18.70;62.91;101052.50;2072876;28;46057;-63
2023/05/09 03:10:05;;;;;;;;;3.00;2.67;;;;;18.69;62.78;101056.16;2072528;28;47335;-63
2023/05/09 03:11:05;;;;;;;;;3.00;3.00;;;;;18.70;63.13;101057.91;2072054;28;46516;-63
2023/05/09 03:12:06;;;;;;;;;4.00;4.00;;;;;18.72;62.91;101055.13;2072612;28;45871;-63
2023/05/09 03:13:07;;;;;;;;;4.00;4.00;;;;;18.73;63.00;101054.16;2072559;28;45075;-62
2023/05/09 03:14:09;;;;;;;;;5.25;3.75;;;;;18.73;62.88;101057.72;2072094;28;46338;-63
2023/05/09 03:15:10;;;;;;;;;2.50;2.50;;;;;18.73;63.22;101056.88;2072546;28;46476;-63
2023/05/09 03:16:16;;;;;;;;;3.00;3.00;;;;;18.73;63.26;101054.16;2072553;28;46161;-63
2023/05/09 03:17:19;;;;;;;;;4.50;4.50;;;;;18.72;63.42;101057.81;2071841;28;46577;-63
2023/05/09 03:18:20;;;;;;;;;4.00;4.00;;;;;18.71;63.54;101056.94;2055507;28;46512;-63
2023/05/09 03:19:20;;;;;;;;;4.00;4.00;;;;;18.72;63.27;101058.69;2062166;28;46534;-62
2023/05/09 03:20:21;;;;;;;;;4.00;4.00;;;;;18.71;63.62;101054.25;2071423;28;45916;-63
2023/05/09 03:21:21;;;;;;;;;4.00;2.67;;;;;18.70;63.62;101047.13;2067587;28;46467;-63
2023/05/09 03:22:21;;;;;;;;;4.33;4.33;;;;;18.70;63.55;101049.81;2063067;28;46653;-63
2023/05/09 03:23:22;;;;;;;;;3.67;3.67;;;;;18.70;63.46;101051.66;2063480;28;46684;-62
2023/05/09 03:24:27;;;;;;;;;4.00;3.67;;;;;18.70;63.44;101054.34;2062791;28;46306;-62
2023/05/09 03:25:27;;;;;;;;;2.75;2.75;;;;;18.70;63.50;101055.22;2063481;28;46579;-62
2023/05/09 03:26:27;;;;;;;;;4.00;4.00;;;;;18.69;63.56;101045.41;2063154;28;46170;-62
2023/05/09 03:27:28;;;;;;;;;5.00;5.00;;;;;18.70;63.57;101048.97;2055391;28;46342;-62
2023/05/09 03:28:28;;;;;;;;;3.33;3.00;;;;;18.68;63.62;101050.84;2055344;28;46274;-62
2023/05/09 03:29:28;;;;;;;;;5.33;4.00;;;;;18.66;63.73;101047.34;2063507;28;46787;-62
2023/05/09 03:30:29;;;;;;;;;4.67;4.67;;;;;18.65;63.97;101043.78;2063656;28;47054;-63
2023/05/09 03:31:29;;;;;;;;;5.00;5.00;;;;;18.66;63.72;101050.03;2063263;28;46564;-64
2023/05/09 03:32:30;;;;;;;;;4.00;4.00;;;;;18.64;64.01;101044.75;2063258;28;46419;-62
2023/05/09 03:33:30;;;;;;;;;3.67;3.67;;;;;18.63;64.26;101051.03;2062855;28;46162;-62
2023/05/09 03:34:30;;;;;;;;;3.33;3.33;;;;;18.63;64.16;101044.78;2055130;28;46549;-63
2023/05/09 03:35:31;;;;;;;;;2.67;2.67;;;;;18.61;64.20;101041.31;2055457;28;46276;-62
2023/05/09 03:36:31;;;;;;;;;4.00;3.00;;;;;18.60;63.95;101042.25;2063404;28;47034;-63
2023/05/09 03:37:34;;;;;;;;;4.67;4.67;;;;;18.59;63.98;101045.91;2063013;28;46598;-63
2023/05/09 03:38:35;;;;;;;;;2.50;2.50;;;;;18.57;64.07;101047.78;2063189;28;46554;-63
2023/05/09 03:39:35;;;;;;;;;2.33;2.33;;;;;18.56;64.08;101048.75;2063216;28;46676;-63
2023/05/09 03:40:36;;;;;;;;;3.00;3.00;;;;;18.55;64.22;101039.81;2063381;28;46240;-62
2023/05/09 03:41:36;;;;;;;;;3.75;3.75;;;;;18.55;63.92;101039.81;2064285;28;46659;-64
2023/05/09 03:42:37;;;;;;;;;5.00;3.00;;;;;18.56;64.25;101043.38;2064295;28;46601;-62
2023/05/09 03:43:38;;;;;;;;;3.00;3.00;;;;;18.54;64.43;101033.53;2063707;28;46467;-64
2023/05/09 03:44:38;;;;;;;;;3.67;3.67;;;;;18.54;64.75;101038.03;2055999;28;46420;-64
2023/05/09 03:45:38;;;;;;;;;5.00;5.00;;;;;18.53;64.67;101044.38;2056029;28;46265;-63
2023/05/09 03:46:39;;;;;;;;;5.00;5.00;;;;;18.52;64.04;101032.75;2063722;28;46304;-63
2023/05/09 03:47:39;;;;;;;;;3.00;3.00;;;;;18.49;63.83;101035.59;2064440;28;46974;-64
2023/05/09 03:48:40;;;;;;;;;2.00;2.00;;;;;18.47;63.06;101036.63;2064450;28;46300;-62
2023/05/09 03:49:40;;;;;;;;;3.00;3.00;;;;;18.43;62.77;101035.91;2064964;28;46171;-63
2023/05/09 03:50:40;;;;;;;;;2.33;2.33;;;;;18.41;62.69;101039.59;2072575;28;46295;-61
2023/05/09 03:51:41;;;;;;;;;3.00;3.00;;;;;18.38;62.66;101035.25;2071685;28;46551;-63
2023/05/09 03:52:41;;;;;;;;;1.33;1.33;;;;;18.36;62.44;101036.28;2071752;28;46527;-63
2023/05/09 03:53:46;;;;;;;;;4.33;3.67;;;;;18.35;62.11;101029.16;2072242;28;46825;-61
2023/05/09 03:54:46;;;;;;;;;2.00;2.00;;;;;18.32;61.87;101040.06;2071790;28;46909;-63
2023/05/09 03:55:46;;;;;;;;;2.00;2.00;;;;;18.29;61.94;101033.00;2071128;28;46709;-64
2023/05/09 03:56:47;;;;;;;;;1.33;1.33;;;;;18.27;61.81;101024.16;2071046;28;46205;-63
2023/05/09 03:57:47;;;;;;;;;1.33;1.33;;;;;18.25;61.27;101028.72;2072615;28;46700;-62
2023/05/09 03:58:48;;;;;;;;;1.33;1.00;;;;;18.24;61.54;101032.38;2072170;28;46633;-62
2023/05/09 03:59:48;;;;;;;;;1.00;1.00;;;;;18.22;61.41;101019.00;2071720;28;46515;-63
2023/05/09 04:00:48;;;;;;;;;1.33;1.33;;;;;18.22;61.61;101027.06;2072041;28;46548;-62
2023/05/09 04:01:49;;;;;;;;;2.00;2.00;;;;;18.21;61.70;101022.66;2079646;28;46307;-63
2023/05/09 04:02:49;;;;;;;;;1.00;1.00;;;;;18.19;61.38;101024.53;2079811;28;46963;-62
2023/05/09 04:03:50;;;;;;;;;2.00;2.00;;;;;18.17;61.63;101020.19;2079998;28;46251;-62
2023/05/09 04:04:51;;;;;;;;;1.00;1.00;;;;;18.12;61.29;101023.06;2079496;28;46724;-64
2023/05/09 04:05:52;;;;;;;;;2.00;2.00;;;;;18.08;61.37;101020.63;2071991;28;46682;-63
2023/05/09 04:06:53;;;;;;;;;2.00;2.00;;;;;18.03;61.67;101023.50;2071750;28;46820;-62
2023/05/09 04:07:53;;;;;;;;;1.00;1.00;;;;;18.00;61.93;101017.41;2072041;28;46875;-62
2023/05/09 04:08:53;;;;;;;;;2.00;2.00;;;;;17.99;62.04;101023.75;2072605;28;46840;-64
2023/05/09 04:09:54;;;;;;;;;2.33;2.00;;;;;17.98;62.34;101022.88;2072374;28;46576;-63
2023/05/09 04:10:55;;;;;;;;;1.00;1.00;;;;;17.97;62.22;101018.44;2071716;28;45276;-63
2023/05/09 04:11:55;;;;;;;;;1.00;1.00;;;;;17.97;62.53;101023.81;2071613;28;46341;-63
2023/05/09 04:12:55;;;;;;;;;2.00;2.00;;;;;17.98;63.04;101020.19;2065947;28;46217;-63
2023/05/09 04:13:56;;;;;;;;;1.33;0.00;;;;;17.98;62.83;101022.00;2070855;28;46845;-58
2023/05/09 04:14:56;;;;;;;;;1.00;1.00;;;;;17.99;62.82;101015.69;2071943;28;46511;-63
2023/05/09 04:15:56;;;;;;;;;1.67;1.67;;;;;17.99;62.67;101019.25;2072309;28;46614;-63
2023/05/09 04:16:57;;;;;;;;;3.33;2.33;;;;;17.97;62.89;101018.44;2072203;28;46595;-63
2023/05/09 04:17:57;;;;;;;;;1.67;1.67;;;;;17.97;62.91;101012.22;2071835;28;46345;-63
2023/05/09 04:18:58;;;;;;;;;1.00;1.00;;;;;17.95;62.53;101017.66;2072601;28;46114;-63
2023/05/09 04:19:58;;;;;;;;;1.00;1.00;;;;;17.91;62.73;101016.94;2072109;28;46662;-61
2023/05/09 04:20:58;;;;;;;;;1.67;1.67;;;;;17.89;62.85;101016.13;2071820;28;46787;-63
2023/05/09 04:21:59;;;;;;;;;3.67;2.00;;;;;17.88;62.63;101017.06;2071083;28;46470;-64
2023/05/09 04:22:59;;;;;;;;;2.33;2.33;;;;;17.85;63.09;101008.28;2079270;28;46665;-63
2023/05/09 04:24:00;;;;;;;;;1.67;1.67;;;;;17.84;63.09;101010.09;2079659;28;46192;-63
2023/05/09 04:25:00;;;;;;;;;2.00;2.00;;;;;17.83;63.07;101004.81;2071879;28;46617;-63
2023/05/09 04:26:01;;;;;;;;;2.00;2.00;;;;;17.82;63.48;101014.69;2072046;28;46837;-63
2023/05/09 04:27:02;;;;;;;;;2.00;2.00;;;;;17.82;63.39;101001.25;2071906;28;46340;-63
2023/05/09 04:28:02;;;;;;;;;1.00;1.00;;;;;17.81;63.56;101007.56;2072171;28;46657;-64
2023/05/09 04:29:03;;;;;;;;;2.00;1.00;;;;;17.82;63.63;101013.81;2071527;28;46800;-64
2023/05/09 04:30:05;;;;;;;;;1.00;1.00;;;;;17.81;63.52;101006.69;2072062;28;46357;-63
2023/05/09 04:31:05;;;;;;;;;1.75;1.75;;;;;17.80;63.66;101008.50;2071924;28;46480;-62
2023/05/09 04:32:05;;;;;;;;;1.00;1.00;;;;;17.78;63.50;101007.69;2071851;28;46546;-63
2023/05/09 04:33:06;;;;;;;;;1.00;1.00;;;;;17.77;63.89;101005.94;2072400;28;46273;-63
2023/05/09 04:34:06;;;;;;;;;2.00;2.00;;;;;17.76;64.09;101006.91;2072154;28;46704;-64
2023/05/09 04:35:07;;;;;;;;;1.33;1.33;;;;;17.76;64.43;101006.91;2071873;28;46676;-63
2023/05/09 04:36:08;;;;;;;;;1.67;1.67;;;;;17.75;63.90;101013.22;2071737;28;46211;-63
2023/05/09 04:37:08;;;;;;;;;1.33;1.33;;;;;17.73;63.71;101003.50;2072002;28;46417;-64
2023/05/09 04:38:08;;;;;;;;;1.00;1.00;;;;;17.69;63.54;101005.47;2071661;28;47096;-63
2023/05/09 04:39:09;;;;;;;;;0.67;0.00;;;;;17.66;63.38;100997.53;2072021;28;45278;-64
2023/05/09 04:40:10;;;;;;;;;1.00;1.00;;;;;17.64;63.18;101000.25;2071841;28;45874;-62
2023/05/09 04:41:10;;;;;;;;;0.00;0.00;;;;;17.64;63.18;101002.94;2072335;28;47554;-63
2023/05/09 04:42:11;;;;;;;;;0.00;0.00;;;;;17.63;63.42;101000.31;2071625;28;45642;-64
2023/05/09 04:43:11;;;;;;;;;0.33;0.33;;;;;17.61;63.13;101000.41;2071183;28;46934;-63
2023/05/09 04:44:17;;;;;;;;;0.00;0.00;;;;;17.58;62.66;100997.88;2071988;28;46455;-65
2023/05/09 04:45:18;;;;;;;;;0.00;0.00;;;;;17.56;62.73;100998.88;2087920;28;46142;-63
2023/05/09 04:46:18;;;;;;;;;1.00;1.00;;;;;17.53;62.76;101001.69;2088250;28;46612;-63
2023/05/09 04:47:18;;;;;;;;;0.00;0.00;;;;;17.51;62.71;100998.19;2072028;28;46752;-63
2023/05/09 04:48:19;;;;;;;;;0.33;0.33;;;;;17.50;62.73;100991.97;2072114;28;46326;-63
2023/05/09 04:49:19;;;;;;;;;0.67;0.67;;;;;17.47;62.37;100993.94;2072107;28;44985;-63